createdAt,value
2017-10-28T00:02:06.637Z,101559
2017-10-28T00:04:35.238Z,101549
2017-10-28T00:07:03.587Z,101564
2017-10-28T00:09:31.655Z,101568
2017-10-28T00:11:59.860Z,101568
2017-10-28T00:14:27.935Z,101544
2017-10-28T00:16:55.981Z,101556
2017-10-28T00:19:24.490Z,101554
2017-10-28T00:21:52.556Z,101532
2017-10-28T00:24:20.694Z,101531
2017-10-28T00:26:49.467Z,101514
2017-10-28T00:29:17.554Z,101521
2017-10-28T00:31:50.301Z,101518
2017-10-28T00:35:21.386Z,101513
2017-10-28T00:37:50.258Z,101505
2017-10-28T00:40:18.322Z,101496
2017-10-28T00:42:46.559Z,101478
2017-10-28T00:45:14.653Z,101476
2017-10-28T00:47:42.734Z,101490
2017-10-28T00:50:10.790Z,101482
2017-10-28T00:52:38.977Z,101478
2017-10-28T00:55:07.069Z,101467
2017-10-28T00:57:35.125Z,101471
2017-10-28T01:00:03.241Z,101462
2017-10-28T01:02:31.290Z,101459
2017-10-28T01:04:59.768Z,101457
2017-10-28T01:07:27.893Z,101454
2017-10-28T01:09:55.947Z,101440
2017-10-28T01:12:24.013Z,101451
2017-10-28T01:14:52.074Z,101456
2017-10-28T01:17:20.161Z,101447
2017-10-28T01:19:48.536Z,101444
2017-10-28T01:22:16.635Z,101425
2017-10-28T01:24:44.780Z,101428
2017-10-28T01:27:12.839Z,101419
2017-10-28T01:29:40.922Z,101409
2017-10-28T01:32:09.010Z,101409
2017-10-28T01:34:37.069Z,101401
2017-10-28T01:37:06.017Z,101397
2017-10-28T01:39:34.086Z,101392
2017-10-28T01:42:02.174Z,101392
2017-10-28T01:44:30.249Z,101370
2017-10-28T01:46:59.034Z,101358
2017-10-28T01:49:27.165Z,101336
2017-10-28T01:51:55.287Z,101328
2017-10-28T01:54:24.199Z,101320
2017-10-28T01:56:52.335Z,101312
2017-10-28T01:59:20.952Z,101314
2017-10-28T02:01:49.084Z,101315
2017-10-28T02:04:17.197Z,101310
2017-10-28T02:06:45.583Z,101303
2017-10-28T02:09:13.716Z,101297
2017-10-28T02:11:41.847Z,101302
2017-10-28T02:14:09.975Z,101307
2017-10-28T02:16:38.092Z,101302
2017-10-28T02:19:06.220Z,101282
2017-10-28T02:21:34.344Z,101283
2017-10-28T02:24:02.628Z,101277
2017-10-28T02:26:30.780Z,101282
2017-10-28T02:28:58.940Z,101283
2017-10-28T02:31:27.067Z,101284
2017-10-28T02:33:55.183Z,101285
2017-10-28T02:36:24.015Z,101286
2017-10-28T02:38:52.161Z,101274
2017-10-28T02:41:20.300Z,101260
2017-10-28T02:43:48.704Z,101255
2017-10-28T02:46:16.823Z,101255
2017-10-28T02:48:44.968Z,101251
2017-10-28T02:51:13.091Z,101241
2017-10-28T02:53:42.000Z,101234
2017-10-28T02:56:10.880Z,101238
2017-10-28T02:58:39.044Z,101233
2017-10-28T03:01:07.228Z,101222
2017-10-28T03:03:35.752Z,101217
2017-10-28T03:06:04.526Z,101216
2017-10-28T03:08:32.888Z,101221
2017-10-28T03:11:01.835Z,101204
2017-10-28T03:13:29.970Z,101200
2017-10-28T03:15:58.151Z,101194
2017-10-28T03:18:26.308Z,101191
2017-10-28T03:20:54.451Z,101190
2017-10-28T03:23:22.597Z,101180
2017-10-28T03:25:50.748Z,101176
2017-10-28T03:28:18.880Z,101184
2017-10-28T03:30:47.396Z,101171
2017-10-28T03:33:15.524Z,101166
2017-10-28T03:35:43.653Z,101157
2017-10-28T03:38:11.775Z,101162
2017-10-28T03:40:40.623Z,101148
2017-10-28T03:43:08.748Z,101143
2017-10-28T03:45:36.875Z,101130
2017-10-28T03:48:05.011Z,101139
2017-10-28T03:50:33.128Z,101132
2017-10-28T03:53:01.252Z,101125
2017-10-28T03:55:30.563Z,101125
2017-10-28T03:57:59.441Z,101115
2017-10-28T04:00:28.483Z,101105
2017-10-28T04:02:56.619Z,101110
2017-10-28T04:05:25.483Z,101079
2017-10-28T04:07:53.615Z,101078
2017-10-28T04:10:21.791Z,101076
2017-10-28T04:12:50.337Z,101060
2017-10-28T04:15:19.219Z,101053
2017-10-28T04:17:47.331Z,101051
2017-10-28T04:20:15.440Z,101056
2017-10-28T04:22:43.739Z,101052
2017-10-28T04:25:12.600Z,101056
2017-10-28T04:27:41.027Z,101035
2017-10-28T04:30:09.183Z,101038
2017-10-28T04:32:37.292Z,101035
2017-10-28T04:35:05.455Z,101015
2017-10-28T04:37:33.611Z,101012
2017-10-28T04:40:01.740Z,101019
2017-10-28T04:42:29.976Z,100994
2017-10-28T04:44:58.089Z,100985
2017-10-28T04:47:26.192Z,100984
2017-10-28T04:49:55.851Z,100974
2017-10-28T04:52:23.976Z,100975
2017-10-28T04:54:52.119Z,100964
2017-10-28T04:57:20.259Z,100962
2017-10-28T04:59:48.415Z,100969
2017-10-28T05:02:17.559Z,100974
2017-10-28T05:04:45.736Z,100968
2017-10-28T05:07:13.859Z,100957
2017-10-28T05:09:42.778Z,100960
2017-10-28T05:12:11.218Z,100954
2017-10-28T05:14:40.400Z,100944
2017-10-28T05:17:08.536Z,100937
2017-10-28T05:19:36.708Z,100933
2017-10-28T05:22:05.198Z,100932
2017-10-28T05:24:33.484Z,100909
2017-10-28T05:27:01.620Z,100898
2017-10-28T05:29:29.775Z,100890
2017-10-28T05:31:58.652Z,100903
2017-10-28T05:34:27.531Z,100896
2017-10-28T05:36:55.673Z,100885
2017-10-28T05:39:24.124Z,100891
2017-10-28T05:41:53.079Z,100894
2017-10-28T05:44:21.252Z,100879
2017-10-28T05:46:49.467Z,100879
2017-10-28T05:49:17.608Z,100881
2017-10-28T05:51:46.533Z,100870
2017-10-28T05:54:15.407Z,100872
2017-10-28T05:56:44.360Z,100871
2017-10-28T05:59:12.514Z,100888
2017-10-28T06:01:40.924Z,100885
2017-10-28T06:04:09.063Z,100887
2017-10-28T06:06:37.223Z,100907
2017-10-28T06:09:05.140Z,100887
2017-10-28T06:11:33.304Z,100895
2017-10-28T06:14:01.715Z,100897
2017-10-28T06:16:29.869Z,100901
2017-10-28T06:18:57.984Z,100880
2017-10-28T06:21:26.849Z,100885
2017-10-28T06:23:54.969Z,100884
2017-10-28T06:26:23.086Z,100880
2017-10-28T06:28:53.104Z,100858
2017-10-28T06:31:21.219Z,100851
2017-10-28T06:33:49.331Z,100860
2017-10-28T06:36:17.439Z,100870
2017-10-28T06:38:46.309Z,100871
2017-10-28T06:41:14.427Z,100865
2017-10-28T06:43:42.568Z,100844
2017-10-28T06:46:10.688Z,100853
2017-10-28T06:48:38.835Z,100851
2017-10-28T06:51:06.951Z,100847
2017-10-28T06:53:35.052Z,100826
2017-10-28T06:56:04.094Z,100834
2017-10-28T06:58:32.384Z,100837
2017-10-28T07:01:00.551Z,100831
2017-10-28T07:03:28.696Z,100829
2017-10-28T07:05:56.826Z,100823
2017-10-28T07:08:24.978Z,100830
2017-10-28T07:10:53.475Z,100834
2017-10-28T07:13:21.623Z,100847
2017-10-28T07:15:49.827Z,100830
2017-10-28T07:18:17.981Z,100815
2017-10-28T07:20:46.167Z,100813
2017-10-28T07:23:14.332Z,100801
2017-10-28T07:25:42.483Z,100794
2017-10-28T07:28:10.615Z,100794
2017-10-28T07:30:38.781Z,100785
2017-10-28T07:33:06.919Z,100797
2017-10-28T07:35:35.061Z,100791
2017-10-28T07:38:03.647Z,100784
2017-10-28T07:40:32.525Z,100789
2017-10-28T07:43:00.660Z,100785
2017-10-28T07:45:28.825Z,100769
2017-10-28T07:47:56.961Z,100780
2017-10-28T07:50:25.861Z,100775
2017-10-28T07:52:54.713Z,100794
2017-10-28T07:55:24.060Z,100778
2017-10-28T07:57:52.191Z,100769
2017-10-28T08:00:20.340Z,100774
2017-10-28T08:02:49.010Z,100776
2017-10-28T08:05:17.144Z,100762
2017-10-28T08:07:46.008Z,100754
2017-10-28T08:10:14.139Z,100759
2017-10-28T08:12:42.284Z,100750
2017-10-28T08:15:10.417Z,100741
2017-10-28T08:17:39.160Z,100722
2017-10-28T08:20:07.316Z,100731
2017-10-28T08:22:35.437Z,100714
2017-10-28T08:25:03.836Z,100722
2017-10-28T08:27:31.988Z,100727
2017-10-28T08:30:00.111Z,100721
2017-10-28T08:32:28.963Z,100721
2017-10-28T08:34:57.063Z,100736
2017-10-28T08:37:25.548Z,100719
2017-10-28T08:39:53.660Z,100723
2017-10-28T08:42:21.805Z,100713
2017-10-28T08:44:49.971Z,100723
2017-10-28T08:47:18.864Z,100701
2017-10-28T08:49:47.731Z,100699
2017-10-28T08:52:15.896Z,100679
2017-10-28T08:54:44.093Z,100690
2017-10-28T08:57:12.415Z,100680
2017-10-28T08:59:40.736Z,100678
2017-10-28T09:02:08.860Z,100665
2017-10-28T09:04:37.279Z,100670
2017-10-28T09:07:05.418Z,100667
2017-10-28T09:09:33.535Z,100652
2017-10-28T09:12:01.662Z,100648
2017-10-28T09:14:29.795Z,100645
2017-10-28T09:16:59.407Z,100642
2017-10-28T09:19:27.884Z,100639
2017-10-28T09:21:56.061Z,100645
2017-10-28T09:24:24.196Z,100641
2017-10-28T09:26:52.303Z,100634
2017-10-28T09:29:20.824Z,100647
2017-10-28T09:31:48.994Z,100632
2017-10-28T09:34:17.131Z,100640
2017-10-28T09:36:45.268Z,100629
2017-10-28T09:39:13.420Z,100616
2017-10-28T09:41:41.560Z,100619
2017-10-28T09:44:09.716Z,100624
2017-10-28T09:46:38.216Z,100623
2017-10-28T09:49:06.336Z,100655
2017-10-28T09:51:34.460Z,100638
2017-10-28T09:54:02.612Z,100642
2017-10-28T09:56:30.735Z,100612
2017-10-28T09:58:58.856Z,100605
2017-10-28T10:01:26.975Z,100610
2017-10-28T10:03:56.119Z,100609
2017-10-28T10:06:24.297Z,100619
2017-10-28T10:08:52.433Z,100606
2017-10-28T10:11:20.620Z,100592
2017-10-28T10:13:48.780Z,100600
2017-10-28T10:16:16.904Z,100592
2017-10-28T10:18:45.047Z,100598
2017-10-28T10:21:13.247Z,100607
2017-10-28T10:23:41.391Z,100597
2017-10-28T10:26:09.960Z,100597
2017-10-28T10:28:38.080Z,100596
2017-10-28T10:31:06.215Z,100595
2017-10-28T10:33:34.389Z,100573
2017-10-28T10:36:02.559Z,100579
2017-10-28T10:38:31.156Z,100566
2017-10-28T10:40:59.297Z,100577
2017-10-28T10:43:27.468Z,100570
2017-10-28T10:45:56.365Z,100571
2017-10-28T10:48:25.243Z,100565
2017-10-28T10:50:53.385Z,100559
2017-10-28T10:53:21.519Z,100556
2017-10-28T10:55:49.932Z,100547
2017-10-28T10:58:18.067Z,100546
2017-10-28T11:00:46.242Z,100544
2017-10-28T11:03:14.384Z,100538
2017-10-28T11:05:44.005Z,100539
2017-10-28T11:08:12.884Z,100537
2017-10-28T11:10:41.024Z,100526
2017-10-28T11:13:09.152Z,100514
2017-10-28T11:15:37.300Z,100509
2017-10-28T11:18:05.445Z,100502
2017-10-28T11:20:33.583Z,100499
2017-10-28T11:23:02.060Z,100485
2017-10-28T11:25:30.242Z,100479
2017-10-28T11:27:58.405Z,100473
2017-10-28T11:30:26.548Z,100471
2017-10-28T11:32:54.695Z,100469
2017-10-28T11:35:22.824Z,100466
2017-10-28T11:37:51.404Z,100460
2017-10-28T11:40:20.268Z,100444
2017-10-28T11:42:48.475Z,100443
2017-10-28T11:45:16.618Z,100428
2017-10-28T11:47:44.772Z,100429
2017-10-28T11:50:12.912Z,100433
2017-10-28T11:52:41.044Z,100422
2017-10-28T11:55:09.171Z,100408
2017-10-28T11:57:37.609Z,100412
2017-10-28T12:00:06.528Z,100404
2017-10-28T12:02:34.671Z,100394
2017-10-28T12:05:03.008Z,100397
2017-10-28T12:07:31.127Z,100399
2017-10-28T12:10:00.004Z,100403
2017-10-28T12:12:28.136Z,100387
2017-10-28T12:14:56.264Z,100388
2017-10-28T12:17:24.390Z,100380
2017-10-28T12:19:52.507Z,100376
2017-10-28T12:22:21.367Z,100378
2017-10-28T12:24:49.856Z,100377
2017-10-28T12:27:18.167Z,100375
2017-10-28T12:29:47.056Z,100361
2017-10-28T12:32:16.305Z,100365
2017-10-28T12:34:44.464Z,100369
2017-10-28T12:37:12.907Z,100369
2017-10-28T12:39:41.791Z,100345
2017-10-28T12:42:10.688Z,100349
2017-10-28T12:44:39.564Z,100369
2017-10-28T12:47:07.687Z,100352
2017-10-28T12:49:35.811Z,100344
2017-10-28T12:52:03.968Z,100340
2017-10-28T12:54:32.096Z,100341
2017-10-28T12:57:00.251Z,100344
2017-10-28T12:59:28.380Z,100337
2017-10-28T13:01:56.501Z,100323
2017-10-28T13:04:25.359Z,100336
2017-10-28T13:06:53.564Z,100321
2017-10-28T13:09:21.725Z,100314
2017-10-28T13:11:50.628Z,100301
2017-10-28T13:14:19.558Z,100293
2017-10-28T13:16:47.680Z,100281
2017-10-28T13:19:15.811Z,100283
2017-10-28T13:21:44.347Z,100277
2017-10-28T13:24:13.228Z,100261
2017-10-28T13:26:42.344Z,100261
2017-10-28T13:29:10.527Z,100258
2017-10-28T13:31:38.807Z,100265
2017-10-28T13:34:06.977Z,100258
2017-10-28T13:36:35.124Z,100255
2017-10-28T13:39:03.616Z,100258
2017-10-28T13:41:31.742Z,100267
2017-10-28T13:43:59.868Z,100251
2017-10-28T13:46:29.151Z,100246
2017-10-28T13:48:57.445Z,100250
2017-10-28T13:51:26.354Z,100237
2017-10-28T13:53:54.477Z,100246
2017-10-28T13:56:22.592Z,100236
2017-10-28T13:58:51.247Z,100238
2017-10-28T14:01:19.363Z,100232
2017-10-28T14:03:47.505Z,100226
2017-10-28T14:06:16.792Z,100227
2017-10-28T14:08:44.911Z,100234
2017-10-28T14:11:13.043Z,100238
2017-10-28T14:13:41.192Z,100220
2017-10-28T14:16:09.343Z,100209
2017-10-28T14:18:37.504Z,100224
2017-10-28T14:21:05.655Z,100214
2017-10-28T14:23:34.524Z,100211
2017-10-28T14:26:02.796Z,100213
2017-10-28T14:28:31.264Z,100198
2017-10-28T14:34:00.679Z,100183
2017-10-28T14:36:29.128Z,100176
2017-10-28T14:38:57.320Z,100178
2017-10-28T14:41:25.451Z,100180
2017-10-28T14:43:54.304Z,100177
2017-10-28T14:46:22.687Z,100176
2017-10-28T14:48:50.853Z,100173
2017-10-28T14:51:18.991Z,100167
2017-10-28T14:53:47.143Z,100163
2017-10-28T14:56:15.268Z,100147
2017-10-28T14:58:43.420Z,100151
2017-10-28T15:01:11.572Z,100142
2017-10-28T15:03:39.736Z,100135
2017-10-28T15:06:08.623Z,100140
2017-10-28T15:08:37.495Z,100104
2017-10-28T15:11:06.027Z,100116
2017-10-28T15:13:34.176Z,100107
2017-10-28T15:16:02.308Z,100087
2017-10-28T15:18:30.456Z,100098
2017-10-28T15:20:58.609Z,100090
2017-10-28T15:23:26.759Z,100091
2017-10-28T15:25:55.628Z,100086
2017-10-28T15:28:23.744Z,100084
2017-10-28T15:30:52.191Z,100085
2017-10-28T15:33:20.336Z,100087
2017-10-28T15:35:48.807Z,100093
2017-10-28T15:38:16.928Z,100070
2017-10-28T15:40:45.115Z,100080
2017-10-28T15:43:14.026Z,100073
2017-10-28T15:45:42.160Z,100063
2017-10-28T15:48:10.293Z,100055
2017-10-28T15:50:38.404Z,100050
2017-10-28T15:53:06.528Z,100038
2017-10-28T15:55:34.648Z,100035
2017-10-28T15:58:02.751Z,100037
2017-10-28T16:00:31.639Z,100028
2017-10-28T16:03:00.519Z,100029
2017-10-28T16:05:29.411Z,100020
2017-10-28T16:07:58.260Z,100032
2017-10-28T16:10:26.392Z,100014
2017-10-28T16:12:54.535Z,100009
2017-10-28T16:15:23.816Z,100009
2017-10-28T16:17:51.943Z,99999
2017-10-28T16:20:20.409Z,100001
2017-10-28T16:22:48.552Z,100010
2017-10-28T16:25:16.677Z,99990
2017-10-28T16:27:44.826Z,99992
2017-10-28T16:30:12.949Z,99989
2017-10-28T16:32:41.614Z,99995
2017-10-28T16:35:09.815Z,99982
2017-10-28T16:37:38.001Z,99977
2017-10-28T16:40:06.127Z,99981
2017-10-28T16:42:34.251Z,99982
2017-10-28T16:45:02.448Z,99968
2017-10-28T16:47:31.311Z,99970
2017-10-28T16:49:59.464Z,99968
2017-10-28T16:52:27.704Z,99981
2017-10-28T16:54:57.028Z,99967
2017-10-28T16:57:25.627Z,99972
2017-10-28T16:59:53.791Z,99967
2017-10-28T17:02:22.292Z,99962
2017-10-28T17:04:50.404Z,99952
2017-10-28T17:07:18.544Z,99943
2017-10-28T17:09:46.704Z,99948
2017-10-28T17:12:14.823Z,99939
2017-10-28T17:14:42.958Z,99922
2017-10-28T17:17:11.088Z,99909
2017-10-28T17:19:39.501Z,99919
2017-10-28T17:22:07.630Z,99902
2017-10-28T17:24:36.484Z,99898
2017-10-28T17:27:04.731Z,99896
2017-10-28T17:29:32.863Z,99897
2017-10-28T17:32:01.752Z,99901
2017-10-28T17:34:30.679Z,99895
2017-10-28T17:36:58.818Z,99886
2017-10-28T17:39:26.950Z,99889
2017-10-28T17:41:55.095Z,99893
2017-10-28T17:44:23.575Z,99884
2017-10-28T17:46:51.723Z,99879
2017-10-28T17:49:19.852Z,99876
2017-10-28T17:51:47.980Z,99878
2017-10-28T17:54:17.004Z,99879
2017-10-28T17:56:45.176Z,99873
2017-10-28T17:59:13.606Z,99881
2017-10-28T18:01:41.927Z,99865
2017-10-28T18:04:10.067Z,99859
2017-10-28T18:06:38.476Z,99851
2017-10-28T18:09:06.612Z,99841
2017-10-28T18:11:34.829Z,99846
2017-10-28T18:14:03.001Z,99847
2017-10-28T18:16:31.167Z,99836
2017-10-28T18:18:59.300Z,99823
2017-10-28T18:21:27.427Z,99812
2017-10-28T18:23:55.540Z,99806
2017-10-28T18:26:23.676Z,99788
2017-10-28T18:28:51.789Z,99791
2017-10-28T18:31:20.445Z,99785
2017-10-28T18:33:48.583Z,99774
2017-10-28T18:36:17.150Z,99754
2017-10-28T18:38:46.087Z,99760
2017-10-28T18:41:14.681Z,99758
2017-10-28T18:43:42.888Z,99764
2017-10-28T18:46:11.087Z,99755
2017-10-28T18:48:39.278Z,99741
2017-10-28T18:51:07.879Z,99742
2017-10-28T18:53:36.048Z,99732
2017-10-28T18:56:04.188Z,99743
2017-10-28T18:58:34.071Z,99718
2017-10-28T19:01:02.800Z,99701
2017-10-28T19:03:31.695Z,99683
2017-10-28T19:06:01.129Z,99684
2017-10-28T19:08:29.444Z,99668
2017-10-28T19:10:57.612Z,99666
2017-10-28T19:13:25.847Z,99665
2017-10-28T19:15:54.045Z,99659
2017-10-28T19:18:22.171Z,99651
2017-10-28T19:20:51.035Z,99651
2017-10-28T19:23:19.298Z,99633
2017-10-28T19:25:47.827Z,99635
2017-10-28T19:28:15.964Z,99610
2017-10-28T19:30:44.216Z,99611
2017-10-28T19:33:12.564Z,99628
2017-10-28T19:35:40.784Z,99594
2017-10-28T19:38:09.053Z,99591
2017-10-28T19:40:37.729Z,99575
2017-10-28T19:43:05.940Z,99585
2017-10-28T19:45:34.067Z,99568
2017-10-28T19:48:02.263Z,99551
2017-10-28T19:50:30.399Z,99551
2017-10-28T19:52:58.544Z,99545
2017-10-28T19:55:26.712Z,99534
2017-10-28T19:57:54.844Z,99520
2017-10-28T20:00:23.024Z,99516
2017-10-28T20:02:51.597Z,99505
2017-10-28T20:05:19.781Z,99505
2017-10-28T20:07:47.932Z,99513
2017-10-28T20:10:16.098Z,99499
2017-10-28T20:12:44.231Z,99498
2017-10-28T20:15:12.378Z,99495
2017-10-28T20:17:40.507Z,99493
2017-10-28T20:20:08.656Z,99469
2017-10-28T20:22:36.792Z,99463
2017-10-28T20:25:05.300Z,99453
2017-10-28T20:27:33.487Z,99443
2017-10-28T20:30:01.633Z,99454
2017-10-28T20:32:29.752Z,99434
2017-10-28T20:34:57.908Z,99436
2017-10-28T20:37:26.363Z,99416
2017-10-28T20:39:54.696Z,99412
2017-10-28T20:42:22.865Z,99433
2017-10-28T20:44:51.068Z,99439
2017-10-28T20:47:19.890Z,99404
2017-10-28T20:49:48.024Z,99395
2017-10-28T20:52:16.164Z,99407
2017-10-28T20:54:45.041Z,99393
2017-10-28T20:57:13.159Z,99393
2017-10-28T20:59:41.659Z,99385
2017-10-28T21:02:09.936Z,99368
2017-10-28T21:04:38.107Z,99369
2017-10-28T21:07:06.259Z,99359
2017-10-28T21:09:34.824Z,99349
2017-10-28T21:12:03.679Z,99340
2017-10-28T21:14:31.811Z,99320
2017-10-28T21:16:59.920Z,99336
2017-10-28T21:19:28.060Z,99320
2017-10-28T21:21:56.231Z,99316
2017-10-28T21:24:24.398Z,99313
2017-10-28T21:26:52.515Z,99292
2017-10-28T21:29:20.651Z,99297
2017-10-28T21:31:48.785Z,99291
2017-10-28T21:34:17.995Z,99279
2017-10-28T21:36:46.915Z,99294
2017-10-28T21:39:15.224Z,99264
2017-10-28T21:41:43.659Z,99248
2017-10-28T21:44:12.656Z,99253
2017-10-28T21:46:40.804Z,99244
2017-10-28T21:49:08.985Z,99222
2017-10-28T21:51:37.127Z,99225
2017-10-28T21:54:05.276Z,99224
2017-10-28T21:56:33.407Z,99209
2017-10-28T21:59:01.564Z,99214
2017-10-28T22:01:30.078Z,99204
2017-10-28T22:03:58.962Z,99206
2017-10-28T22:06:27.964Z,99206
2017-10-28T22:08:56.132Z,99186
2017-10-28T22:11:25.328Z,99180
2017-10-28T22:13:53.443Z,99179
2017-10-28T22:16:21.569Z,99149
2017-10-28T22:18:49.680Z,99163
2017-10-28T22:21:17.852Z,99157
2017-10-28T22:23:46.404Z,99149
2017-10-28T22:26:15.285Z,99136
2017-10-28T22:28:44.144Z,99125
2017-10-28T22:31:12.277Z,99098
2017-10-28T22:33:40.408Z,99085
2017-10-28T22:36:10.036Z,99100
2017-10-28T22:38:38.908Z,99113
2017-10-28T22:41:07.051Z,99088
2017-10-28T22:43:35.252Z,99087
2017-10-28T22:46:03.435Z,99079
2017-10-28T22:48:31.571Z,99077
2017-10-28T22:50:59.756Z,99055
2017-10-28T22:53:27.961Z,99069
2017-10-28T22:55:56.083Z,99064
2017-10-28T22:58:24.211Z,99059
2017-10-28T23:00:52.364Z,99037
2017-10-28T23:03:20.522Z,99027
2017-10-28T23:05:48.649Z,99027
2017-10-28T23:08:16.783Z,99018
2017-10-28T23:10:45.299Z,99015
2017-10-28T23:13:14.156Z,99004
2017-10-28T23:15:42.287Z,98990
2017-10-28T23:18:10.424Z,98980
2017-10-28T23:20:38.720Z,98998
2017-10-28T23:23:06.857Z,98990
2017-10-28T23:25:34.984Z,98980
2017-10-28T23:28:03.095Z,98980
2017-10-28T23:30:31.216Z,98971
2017-10-28T23:32:59.779Z,98970
2017-10-28T23:35:28.736Z,98953
2017-10-28T23:37:56.876Z,98951
2017-10-28T23:40:25.012Z,98947
2017-10-28T23:42:53.145Z,98923
2017-10-28T23:45:21.545Z,98922
2017-10-28T23:47:49.683Z,98905
2017-10-28T23:50:17.811Z,98877
2017-10-28T23:52:45.964Z,98870
2017-10-28T23:55:14.465Z,98829
2017-10-28T23:57:42.599Z,98823
